Time;durP1;ratioP1;P1;durP2;ratioP2;P2;SDS_P1;SDS_P2;PMS_P1;PMS_P2;Temp;Humidity;BMP_temperature;BMP_pressure;BME280_temperature;BME280_humidity;BME280_pressure;Samples;Min_cycle;Max_cycle;Signal;HPM_P1;HPM_P2
2022/07/10 00:01:12;;;;;;;9.35;9.05;;;16.10;99.90;;;;;;5037797;28;20274;-88
2022/07/10 00:03:45;;;;;;;9.60;9.30;;;16.10;99.90;;;;;;5038215;28;20242;-88
2022/07/10 00:06:12;;;;;;;9.40;9.10;;;16.00;99.90;;;;;;5038623;28;20235;-88
2022/07/10 00:08:42;;;;;;;9.40;9.10;;;16.00;99.90;;;;;;5037674;28;20259;-88
2022/07/10 00:11:10;;;;;;;9.40;9.10;;;16.00;99.90;;;;;;5037867;28;20231;-88
2022/07/10 00:13:46;;;;;;;9.45;9.15;;;16.00;99.90;;;;;;5037762;28;20286;-88
2022/07/10 00:16:14;;;;;;;9.50;9.20;;;15.90;99.90;;;;;;5038250;28;20304;-88
2022/07/10 00:18:42;;;;;;;9.60;9.30;;;15.90;99.90;;;;;;5037597;28;20232;-88
2022/07/10 00:21:10;;;;;;;9.70;9.40;;;15.90;99.90;;;;;;5038294;28;20246;-88
2022/07/10 00:23:41;;;;;;;9.57;9.27;;;15.90;99.90;;;;;;5045284;28;20231;-88
2022/07/10 00:26:08;;;;;;;9.65;9.35;;;15.90;99.90;;;;;;5039539;28;20237;-87
2022/07/10 00:28:37;;;;;;;9.60;9.30;;;15.80;99.90;;;;;;5051802;28;20258;-88
2022/07/10 00:31:10;;;;;;;9.60;9.30;;;15.70;99.90;;;;;;5059579;28;20231;-87
2022/07/10 00:33:41;;;;;;;9.50;9.20;;;15.70;99.90;;;;;;5056623;28;20234;-87
2022/07/10 00:36:12;;;;;;;9.70;9.40;;;15.50;99.90;;;;;;5039131;28;20232;-88
2022/07/10 00:38:42;;;;;;;9.50;9.20;;;15.50;99.90;;;;;;5038495;28;20269;-88
2022/07/10 00:41:10;;;;;;;9.50;9.20;;;15.40;99.90;;;;;;5037748;28;20243;-88
2022/07/10 00:43:54;;;;;;;9.57;9.27;;;15.30;99.90;;;;;;5037528;28;20242;-88
2022/07/10 00:46:35;;;;;;;9.70;9.40;;;15.30;99.90;;;;;;5036933;28;20243;-88
2022/07/10 00:49:12;;;;;;;9.50;9.20;;;15.30;99.90;;;;;;5037912;28;20703;-88
2022/07/10 00:51:42;;;;;;;9.60;9.30;;;15.30;99.90;;;;;;5037767;28;20230;-88
2022/07/10 00:54:23;;;;;;;9.60;9.30;;;15.30;99.90;;;;;;5036611;28;20330;-87
2022/07/10 00:56:58;;;;;;;9.60;9.30;;;15.20;99.90;;;;;;5037282;28;20309;-87
2022/07/10 00:59:28;;;;;;;9.80;9.50;;;15.20;99.90;;;;;;5036364;28;20301;-87
2022/07/10 01:01:57;;;;;;;9.57;9.27;;;15.20;99.90;;;;;;5037136;28;20246;-88
2022/07/10 01:04:38;;;;;;;9.70;9.40;;;15.10;99.90;;;;;;5036126;28;20285;-88
2022/07/10 01:07:15;;;;;;;9.57;9.27;;;15.10;99.90;;;;;;5036496;28;20242;-88
2022/07/10 01:09:44;;;;;;;9.70;9.40;;;15.10;99.90;;;;;;5044895;28;20254;-87
2022/07/10 01:12:13;;;;;;;9.77;9.48;;;15.10;99.90;;;;;;5056299;28;20228;-86
2022/07/10 01:14:42;;;;;;;9.88;9.57;;;15.00;99.90;;;;;;5058971;28;20235;-87
2022/07/10 01:17:16;;;;;;;9.85;9.55;;;15.00;99.90;;;;;;5058858;28;20203;-87
2022/07/10 01:19:50;;;;;;;9.65;9.35;;;15.00;99.90;;;;;;5057464;28;20218;-87
2022/07/10 01:22:30;;;;;;;9.77;9.48;;;15.00;99.90;;;;;;5056183;28;20242;-87
2022/07/10 01:25:12;;;;;;;9.90;9.60;;;14.90;99.90;;;;;;5055008;28;20322;-88
2022/07/10 01:27:49;;;;;;;9.70;9.40;;;14.90;99.90;;;;;;5047453;28;20231;-87
2022/07/10 01:30:23;;;;;;;9.60;9.30;;;14.90;99.90;;;;;;5040452;28;20249;-88
2022/07/10 01:32:52;;;;;;;9.73;9.43;;;14.80;99.90;;;;;;5040846;28;20227;-88
2022/07/10 01:35:20;;;;;;;9.85;9.55;;;14.90;99.90;;;;;;5039418;28;20259;-88
2022/07/10 01:37:58;;;;;;;9.63;9.32;;;14.90;99.90;;;;;;5039031;28;20231;-88
2022/07/10 01:40:26;;;;;;;9.68;9.38;;;14.90;99.90;;;;;;5039595;28;20231;-87
2022/07/10 01:42:58;;;;;;;9.60;9.30;;;14.90;99.90;;;;;;5040495;28;20239;-87
2022/07/10 01:45:26;;;;;;;9.75;9.45;;;14.90;99.90;;;;;;5039950;28;20237;-87
2022/07/10 01:47:54;;;;;;;9.70;9.40;;;14.90;99.90;;;;;;5040045;28;20235;-87
2022/07/10 01:50:22;;;;;;;9.60;9.30;;;14.90;99.90;;;;;;5039945;28;20247;-87
2022/07/10 01:53:04;;;;;;;9.73;9.43;;;14.80;99.90;;;;;;5040047;28;20231;-87
2022/07/10 01:55:33;;;;;;;9.70;9.40;;;14.80;99.90;;;;;;5039846;28;20227;-87
2022/07/10 01:58:01;;;;;;;9.73;9.43;;;14.80;99.90;;;;;;5047557;28;20230;-87
2022/07/10 02:00:29;;;;;;;9.52;9.23;;;14.80;99.90;;;;;;5043183;28;20234;-87
2022/07/10 02:05:42;;;;;;;9.55;9.25;;;14.80;99.90;;;;;;5008814;28;20219;-87
2022/07/10 02:08:12;;;;;;;9.63;9.32;;;14.80;99.90;;;;;;5039918;28;20243;-87
2022/07/10 02:10:40;;;;;;;9.60;9.30;;;14.80;99.90;;;;;;5039947;28;20262;-87
2022/07/10 02:13:09;;;;;;;9.30;9.00;;;14.90;99.90;;;;;;5039567;28;20239;-87
2022/07/10 02:15:37;;;;;;;9.50;9.20;;;14.90;99.90;;;;;;5038915;28;20238;-87
2022/07/10 02:18:05;;;;;;;9.60;9.30;;;14.90;99.90;;;;;;5039899;28;20227;-88
2022/07/10 02:20:34;;;;;;;9.50;9.20;;;14.80;99.90;;;;;;5039712;28;20266;-87
2022/07/10 02:23:02;;;;;;;9.60;9.30;;;14.80;99.90;;;;;;5039127;28;20231;-88
2022/07/10 02:25:35;;;;;;;9.68;9.38;;;14.80;99.90;;;;;;5039488;28;20274;-87
2022/07/10 02:28:03;;;;;;;9.57;9.27;;;14.80;99.90;;;;;;5039443;28;20232;-88
2022/07/10 02:30:35;;;;;;;9.48;9.18;;;14.80;99.90;;;;;;5037766;28;20266;-88
2022/07/10 02:33:04;;;;;;;9.35;9.05;;;14.80;99.90;;;;;;5039448;28;20718;-88
2022/07/10 02:35:34;;;;;;;9.70;9.40;;;14.80;99.90;;;;;;5038769;28;20247;-88
2022/07/10 02:38:02;;;;;;;9.40;9.10;;;14.80;99.90;;;;;;5039315;28;20232;-88
2022/07/10 02:40:31;;;;;;;9.45;9.15;;;14.80;99.90;;;;;;5039235;28;20290;-87
2022/07/10 02:42:59;;;;;;;9.50;9.20;;;14.80;99.90;;;;;;5039361;28;20239;-87
2022/07/10 02:45:29;;;;;;;9.68;9.38;;;14.80;99.90;;;;;;5037983;28;20219;-87
2022/07/10 02:47:56;;;;;;;9.60;9.30;;;14.80;99.90;;;;;;5039037;28;20295;-87
2022/07/10 02:50:24;;;;;;;9.65;9.35;;;14.70;99.90;;;;;;5038358;28;20239;-87
2022/07/10 02:52:54;;;;;;;9.80;9.50;;;14.70;99.90;;;;;;5038586;28;20250;-88
2022/07/10 02:55:22;;;;;;;9.63;9.32;;;14.70;99.90;;;;;;5041655;28;20307;-88
2022/07/10 02:58:05;;;;;;;9.60;9.30;;;14.60;99.90;;;;;;5060503;28;20232;-85
2022/07/10 03:00:45;;;;;;;9.70;9.40;;;14.60;99.90;;;;;;5060953;28;20227;-87
2022/07/10 03:03:13;;;;;;;9.85;9.55;;;14.60;99.90;;;;;;5061208;28;20209;-87
2022/07/10 03:05:40;;;;;;;9.93;9.63;;;14.50;99.90;;;;;;5061039;28;20282;-86
2022/07/10 03:08:11;;;;;;;9.90;9.60;;;14.50;99.90;;;;;;5060872;28;20231;-87
2022/07/10 03:10:51;;;;;;;9.93;9.63;;;14.50;99.90;;;;;;5060542;28;20250;-87
2022/07/10 03:13:20;;;;;;;9.60;9.30;;;14.40;99.90;;;;;;5060925;28;20207;-87
2022/07/10 03:15:48;;;;;;;9.77;9.48;;;14.40;99.90;;;;;;5060203;28;20200;-87
2022/07/10 03:18:16;;;;;;;9.90;9.60;;;14.40;99.90;;;;;;5058444;28;20243;-87
2022/07/10 03:20:44;;;;;;;9.70;9.40;;;14.30;99.90;;;;;;5044545;28;20262;-88
2022/07/10 03:23:12;;;;;;;9.85;9.55;;;14.30;99.90;;;;;;5038520;28;20231;-88
2022/07/10 03:25:39;;;;;;;10.00;9.70;;;14.30;99.90;;;;;;5037715;28;20243;-88
2022/07/10 03:28:07;;;;;;;9.70;9.40;;;14.30;99.90;;;;;;5038127;28;20243;-87
2022/07/10 03:30:36;;;;;;;9.73;9.43;;;14.40;99.90;;;;;;5037880;28;20239;-87
2022/07/10 03:33:04;;;;;;;9.90;9.60;;;14.30;99.90;;;;;;5040711;28;20230;-88
2022/07/10 03:35:32;;;;;;;9.77;9.47;;;14.30;99.90;;;;;;5052750;28;20241;-88
2022/07/10 03:38:00;;;;;;;9.80;9.50;;;14.20;99.90;;;;;;5037226;28;20234;-88
2022/07/10 03:40:28;;;;;;;9.70;9.40;;;14.20;99.90;;;;;;5037111;28;20285;-88
2022/07/10 03:42:56;;;;;;;9.90;9.60;;;14.20;99.90;;;;;;5037238;28;20293;-88
2022/07/10 03:45:24;;;;;;;9.80;9.50;;;14.20;99.90;;;;;;5036963;28;20232;-88
2022/07/10 03:47:53;;;;;;;9.80;9.50;;;14.10;99.90;;;;;;5037414;28;20239;-87
2022/07/10 03:50:21;;;;;;;9.70;9.40;;;14.10;99.90;;;;;;5037526;28;20239;-87
2022/07/10 03:52:48;;;;;;;9.60;9.30;;;14.10;99.90;;;;;;5037331;28;20266;-88
2022/07/10 03:55:16;;;;;;;9.90;9.60;;;14.10;99.90;;;;;;5037007;28;20242;-86
2022/07/10 03:57:56;;;;;;;9.60;9.30;;;14.10;99.90;;;;;;5037129;28;20282;-87
2022/07/10 04:00:26;;;;;;;9.80;9.50;;;14.20;99.90;;;;;;5036917;28;20231;-87
2022/07/10 04:02:59;;;;;;;9.90;9.60;;;14.10;99.90;;;;;;5036605;28;20234;-87
2022/07/10 04:05:28;;;;;;;9.87;9.57;;;14.10;99.90;;;;;;5036284;28;20272;-87
2022/07/10 04:07:57;;;;;;;9.60;9.30;;;14.10;99.90;;;;;;5037073;28;20232;-87
2022/07/10 04:10:26;;;;;;;9.60;9.30;;;14.10;99.90;;;;;;5045215;28;20257;-86
2022/07/10 04:12:54;;;;;;;9.85;9.55;;;14.10;99.90;;;;;;5060202;28;20223;-86
2022/07/10 04:15:22;;;;;;;9.80;9.50;;;14.10;99.90;;;;;;5060129;28;20220;-86
2022/07/10 04:17:51;;;;;;;9.80;9.50;;;14.10;99.90;;;;;;5041231;28;20235;-87
2022/07/10 04:20:21;;;;;;;9.90;9.60;;;14.00;99.90;;;;;;5037751;28;20357;-87
2022/07/10 04:22:49;;;;;;;9.80;9.50;;;14.10;99.90;;;;;;5037445;28;20247;-87
2022/07/10 04:25:18;;;;;;;9.80;9.50;;;14.00;99.90;;;;;;5036592;28;20230;-87
2022/07/10 04:27:46;;;;;;;9.80;9.50;;;14.00;99.90;;;;;;5037348;28;20302;-87
2022/07/10 04:30:13;;;;;;;9.90;9.60;;;14.00;99.90;;;;;;5036677;28;20294;-87
2022/07/10 04:32:41;;;;;;;9.70;9.40;;;13.90;99.90;;;;;;5036945;28;20761;-87
2022/07/10 04:35:10;;;;;;;9.80;9.50;;;13.90;99.90;;;;;;5043489;28;20223;-87
2022/07/10 04:37:39;;;;;;;9.70;9.40;;;13.90;99.90;;;;;;5037118;28;20282;-87
2022/07/10 04:40:09;;;;;;;9.70;9.40;;;14.00;99.90;;;;;;5036939;28;20243;-87
2022/07/10 04:42:37;;;;;;;10.10;9.80;;;14.00;99.90;;;;;;5041714;28;20250;-88
2022/07/10 04:45:06;;;;;;;9.83;9.53;;;14.00;99.90;;;;;;5040065;28;20251;-87
2022/07/10 04:47:34;;;;;;;9.70;9.40;;;14.00;99.90;;;;;;5040610;28;20235;-88
2022/07/10 04:50:02;;;;;;;9.77;9.48;;;14.00;99.90;;;;;;5039269;28;20241;-87
2022/07/10 04:52:29;;;;;;;10.00;9.70;;;14.00;99.90;;;;;;5038305;28;20242;-87
2022/07/10 04:54:59;;;;;;;9.80;9.50;;;14.00;99.90;;;;;;5038133;28;20289;-88
2022/07/10 04:57:26;;;;;;;9.70;9.40;;;14.00;99.90;;;;;;5037124;28;20282;-88
2022/07/10 04:59:54;;;;;;;9.80;9.50;;;14.10;99.90;;;;;;5037316;28;20846;-87
2022/07/10 05:02:22;;;;;;;9.80;9.50;;;14.10;99.90;;;;;;5037143;28;20804;-88
2022/07/10 05:04:50;;;;;;;9.90;9.60;;;14.20;99.90;;;;;;5038383;28;20322;-88
2022/07/10 05:07:18;;;;;;;9.80;9.50;;;14.20;99.90;;;;;;5047121;28;20227;-87
2022/07/10 05:09:45;;;;;;;9.80;9.50;;;14.30;99.90;;;;;;5054277;28;20219;-87
2022/07/10 05:12:15;;;;;;;9.80;9.50;;;14.40;99.90;;;;;;5055868;28;20234;-87
2022/07/10 05:14:50;;;;;;;9.97;9.67;;;14.40;99.90;;;;;;5035841;28;20231;-87
2022/07/10 05:17:22;;;;;;;9.93;9.63;;;14.50;99.90;;;;;;5037051;28;20239;-87
2022/07/10 05:19:51;;;;;;;9.95;9.65;;;14.60;99.90;;;;;;5036957;28;20227;-87
2022/07/10 05:22:19;;;;;;;9.88;9.57;;;14.60;99.90;;;;;;5037050;28;20216;-88
2022/07/10 05:24:47;;;;;;;9.82;9.52;;;14.60;99.90;;;;;;5036334;28;20239;-86
2022/07/10 05:27:18;;;;;;;9.98;9.68;;;14.70;99.90;;;;;;5038658;28;20331;-88
2022/07/10 05:29:46;;;;;;;10.20;9.90;;;14.80;99.90;;;;;;5080368;22;20235;-82
2022/07/10 05:32:13;;;;;;;10.13;9.82;;;14.80;99.90;;;;;;5038749;28;20239;-82
2022/07/10 05:34:42;;;;;;;9.88;9.57;;;14.80;99.90;;;;;;5038598;28;20243;-82
2022/07/10 05:37:09;;;;;;;10.00;9.70;;;14.70;99.90;;;;;;5039186;28;20250;-82
2022/07/10 05:39:37;;;;;;;9.98;9.68;;;14.70;99.90;;;;;;5039629;28;20231;-81
2022/07/10 05:42:05;;;;;;;10.05;9.75;;;14.70;99.90;;;;;;5026159;28;20235;-82
2022/07/10 05:44:34;;;;;;;10.10;9.80;;;14.70;99.90;;;;;;5018288;28;20240;-82
2022/07/10 05:47:02;;;;;;;10.02;9.73;;;14.60;99.90;;;;;;5018681;28;20239;-82
2022/07/10 05:49:31;;;;;;;10.25;9.95;;;14.60;99.90;;;;;;5018956;28;20279;-82
2022/07/10 05:51:59;;;;;;;9.90;9.60;;;14.70;99.90;;;;;;5018527;28;20240;-81
2022/07/10 05:54:27;;;;;;;10.15;9.85;;;14.80;99.90;;;;;;5018536;28;20287;-82
2022/07/10 05:56:54;;;;;;;10.15;9.85;;;14.80;99.90;;;;;;5017801;28;20250;-81
2022/07/10 05:59:22;;;;;;;9.93;9.63;;;14.80;99.90;;;;;;5018622;28;20287;-82
2022/07/10 06:01:51;;;;;;;10.00;9.70;;;14.90;99.90;;;;;;5017764;28;20247;-82
2022/07/10 06:04:18;;;;;;;10.30;10.00;;;14.90;99.90;;;;;;5018275;28;20263;-82
2022/07/10 06:06:46;;;;;;;10.00;9.70;;;14.80;99.90;;;;;;5018222;28;20310;-82
2022/07/10 06:09:14;;;;;;;10.20;9.90;;;14.80;99.90;;;;;;5018262;28;20239;-81
2022/07/10 06:11:44;;;;;;;10.20;9.90;;;14.80;99.90;;;;;;5017743;28;20690;-82
2022/07/10 06:14:11;;;;;;;10.02;9.73;;;14.80;99.90;;;;;;5017579;28;20221;-82
2022/07/10 06:16:39;;;;;;;9.98;9.68;;;14.90;99.90;;;;;;5018352;28;20279;-82
2022/07/10 06:19:12;;;;;;;9.90;9.60;;;15.00;99.90;;;;;;5018687;28;20233;-82
2022/07/10 06:21:42;;;;;;;10.15;9.85;;;15.10;99.90;;;;;;5018491;28;20232;-82
2022/07/10 06:24:09;;;;;;;10.10;9.80;;;15.20;99.90;;;;;;5017680;28;20319;-82
2022/07/10 06:26:37;;;;;;;10.10;9.80;;;15.20;99.90;;;;;;5019305;28;20282;-83
2022/07/10 06:29:05;;;;;;;10.10;9.80;;;15.30;99.90;;;;;;5021517;28;20266;-82
2022/07/10 06:31:32;;;;;;;9.93;9.63;;;15.30;99.90;;;;;;5020729;28;20236;-82
2022/07/10 06:34:00;;;;;;;9.73;9.43;;;15.30;99.90;;;;;;5021812;28;20230;-83
2022/07/10 06:36:29;;;;;;;10.10;9.80;;;15.30;99.90;;;;;;5023576;28;20252;-83
2022/07/10 06:38:57;;;;;;;10.02;9.73;;;15.30;99.90;;;;;;5026581;28;20228;-83
2022/07/10 06:41:24;;;;;;;10.10;9.80;;;15.40;99.90;;;;;;5022481;28;20331;-83
2022/07/10 06:43:52;;;;;;;10.25;9.95;;;15.50;99.90;;;;;;5021495;28;20375;-83
2022/07/10 06:46:19;;;;;;;10.20;9.90;;;15.50;99.90;;;;;;5021247;28;20327;-83
2022/07/10 06:48:46;;;;;;;10.20;9.90;;;15.40;99.90;;;;;;5021753;28;20252;-83
2022/07/10 06:51:13;;;;;;;10.20;9.90;;;15.20;99.90;;;;;;5020690;28;20247;-83
2022/07/10 06:53:42;;;;;;;9.95;9.65;;;15.20;99.90;;;;;;5021743;28;20331;-83
2022/07/10 06:56:10;;;;;;;9.98;9.68;;;15.30;99.90;;;;;;5021680;28;20236;-83
2022/07/10 06:58:37;;;;;;;9.77;9.48;;;15.30;99.90;;;;;;5022054;28;20236;-82
2022/07/10 07:01:05;;;;;;;9.98;9.68;;;15.20;99.90;;;;;;5021584;28;20291;-82
2022/07/10 07:03:33;;;;;;;10.02;9.73;;;15.20;99.90;;;;;;5021051;28;20239;-83
2022/07/10 07:06:00;;;;;;;10.15;9.85;;;15.40;99.90;;;;;;5020767;28;20303;-82
2022/07/10 07:08:30;;;;;;;10.27;9.98;;;15.60;99.90;;;;;;5021184;28;20300;-83
2022/07/10 07:10:59;;;;;;;10.32;10.02;;;15.80;99.90;;;;;;5020846;28;20286;-83
2022/07/10 07:13:27;;;;;;;10.60;10.30;;;15.90;99.90;;;;;;5020980;28;20236;-83
2022/07/10 07:15:59;;;;;;;10.15;9.85;;;16.00;99.90;;;;;;5020683;28;20236;-83
2022/07/10 07:18:32;;;;;;;10.30;10.00;;;15.90;99.90;;;;;;5021023;28;20232;-83
2022/07/10 07:23:59;;;;;;;10.25;9.95;;;15.70;99.90;;;;;;4979041;28;20225;-83
2022/07/10 07:26:28;;;;;;;10.30;10.00;;;15.50;99.90;;;;;;5011605;28;20274;-82
2022/07/10 07:28:55;;;;;;;10.13;9.82;;;15.30;99.90;;;;;;5021140;28;20240;-83
2022/07/10 07:31:24;;;;;;;10.27;9.98;;;15.20;99.90;;;;;;5020733;28;20248;-82
2022/07/10 07:33:51;;;;;;;10.23;9.93;;;15.30;99.90;;;;;;5020951;28;20221;-83
2022/07/10 07:36:19;;;;;;;10.40;10.10;;;15.50;99.90;;;;;;5020342;28;20243;-82
2022/07/10 07:38:46;;;;;;;10.07;9.77;;;15.70;99.90;;;;;;5020753;28;20244;-84
2022/07/10 07:41:15;;;;;;;10.35;10.05;;;15.90;99.90;;;;;;5021957;28;20242;-83
2022/07/10 07:43:44;;;;;;;10.25;9.95;;;16.10;99.90;;;;;;5021530;28;20213;-83
2022/07/10 07:46:11;;;;;;;10.45;10.15;;;16.20;99.90;;;;;;5020974;28;20264;-83
2022/07/10 07:48:39;;;;;;;10.13;9.82;;;16.30;99.90;;;;;;5021470;28;20236;-84
2022/07/10 07:51:07;;;;;;;10.35;10.05;;;16.30;99.90;;;;;;5020850;28;20248;-84
2022/07/10 07:53:35;;;;;;;10.25;9.95;;;16.20;99.90;;;;;;5021467;28;20310;-83
2022/07/10 07:56:02;;;;;;;10.30;10.00;;;16.30;99.90;;;;;;5023299;28;20286;-83
2022/07/10 07:58:31;;;;;;;10.05;9.75;;;16.50;99.90;;;;;;5024510;28;20274;-83
2022/07/10 08:01:00;;;;;;;10.30;10.00;;;16.50;99.90;;;;;;5024259;28;20228;-83
2022/07/10 08:03:32;;;;;;;10.40;10.10;;;16.40;99.90;;;;;;5027635;28;20236;-83
2022/07/10 08:05:59;;;;;;;10.40;10.10;;;16.50;99.90;;;;;;5023287;28;20240;-83
2022/07/10 08:08:27;;;;;;;10.35;10.05;;;16.70;99.90;;;;;;5021080;28;20232;-83
2022/07/10 08:10:54;;;;;;;10.30;10.00;;;16.70;99.90;;;;;;5021928;28;20299;-83
2022/07/10 08:13:22;;;;;;;10.23;9.93;;;16.70;99.90;;;;;;5021167;28;20771;-84
2022/07/10 08:15:50;;;;;;;10.30;10.00;;;16.70;99.90;;;;;;5020837;28;20267;-83
2022/07/10 08:18:19;;;;;;;9.95;9.65;;;16.60;99.90;;;;;;5023694;28;20256;-84
2022/07/10 08:20:47;;;;;;;10.10;9.80;;;16.70;99.90;;;;;;5020778;28;20247;-84
2022/07/10 08:23:14;;;;;;;10.15;9.85;;;16.80;99.90;;;;;;5020648;28;20252;-83
2022/07/10 08:25:42;;;;;;;9.98;9.68;;;16.70;99.90;;;;;;5020207;28;20256;-83
2022/07/10 08:28:12;;;;;;;10.32;10.02;;;16.80;99.90;;;;;;5020638;28;20240;-83
2022/07/10 08:30:41;;;;;;;10.35;10.05;;;16.80;99.90;;;;;;5020655;28;20232;-83
2022/07/10 08:33:21;;;;;;;10.25;9.95;;;16.90;99.90;;;;;;5020767;28;20311;-83
2022/07/10 08:35:49;;;;;;;10.23;9.93;;;16.90;99.90;;;;;;5020987;28;20237;-83
2022/07/10 08:38:16;;;;;;;10.20;9.90;;;16.90;99.90;;;;;;5020743;28;20259;-83
2022/07/10 08:40:47;;;;;;;10.10;9.80;;;16.80;99.90;;;;;;5019960;28;20240;-84
2022/07/10 08:43:16;;;;;;;10.25;9.95;;;16.90;99.90;;;;;;5021170;28;20255;-84
2022/07/10 08:45:44;;;;;;;10.32;10.02;;;16.90;99.90;;;;;;5019939;28;20296;-83
2022/07/10 08:48:13;;;;;;;10.30;10.00;;;16.80;99.90;;;;;;5020982;28;20362;-83
2022/07/10 08:50:48;;;;;;;10.48;10.18;;;17.00;99.90;;;;;;5023707;28;20251;-83
2022/07/10 08:53:25;;;;;;;10.27;9.98;;;17.20;99.90;;;;;;5028296;28;20295;-83
2022/07/10 08:55:52;;;;;;;10.38;10.07;;;17.30;99.90;;;;;;5023286;28;20255;-83
2022/07/10 08:58:24;;;;;;;10.50;10.20;;;17.30;99.90;;;;;;5024514;28;20291;-84
2022/07/10 09:00:53;;;;;;;10.45;10.15;;;17.30;99.90;;;;;;5021563;28;20355;-84
2022/07/10 09:03:21;;;;;;;10.52;10.23;;;17.40;99.90;;;;;;5021459;28;20248;-83
2022/07/10 09:05:51;;;;;;;10.30;10.00;;;17.40;99.90;;;;;;5020725;28;20239;-83
2022/07/10 09:08:27;;;;;;;10.30;10.00;;;17.70;99.90;;;;;;5020622;28;20235;-84
2022/07/10 09:11:14;;;;;;;10.20;9.90;;;18.10;99.90;;;;;;5020766;28;20243;-84
2022/07/10 09:13:51;;;;;;;10.40;10.10;;;18.30;99.90;;;;;;5020193;28;20228;-84
2022/07/10 09:16:24;;;;;;;10.25;9.95;;;18.10;99.90;;;;;;5020464;28;20240;-84
2022/07/10 09:18:51;;;;;;;10.40;10.10;;;18.00;99.90;;;;;;5020190;28;20259;-84
2022/07/10 09:21:24;;;;;;;10.32;10.02;;;17.90;99.90;;;;;;5020332;28;20250;-84
2022/07/10 09:23:52;;;;;;;10.30;10.00;;;18.00;99.90;;;;;;5020785;28;20320;-84
2022/07/10 09:26:19;;;;;;;10.10;9.80;;;18.10;99.90;;;;;;5019906;28;20244;-84
2022/07/10 09:28:54;;;;;;;10.40;10.10;;;18.10;99.90;;;;;;5019144;28;20236;-84
2022/07/10 09:31:22;;;;;;;10.40;10.10;;;17.90;99.90;;;;;;5017140;28;20251;-84
2022/07/10 09:33:49;;;;;;;10.23;9.93;;;18.00;99.90;;;;;;5019661;28;20208;-83
2022/07/10 09:36:18;;;;;;;10.10;9.80;;;18.10;99.90;;;;;;5019333;28;20295;-84
2022/07/10 09:38:57;;;;;;;9.93;9.63;;;18.10;99.90;;;;;;5019036;28;20231;-84
2022/07/10 09:41:28;;;;;;;10.15;9.85;;;18.00;99.90;;;;;;5019638;28;20246;-84
2022/07/10 09:43:58;;;;;;;9.85;9.55;;;18.10;99.90;;;;;;5018930;28;20216;-83
2022/07/10 09:46:28;;;;;;;10.00;9.70;;;18.60;99.90;;;;;;5019103;28;20239;-84
2022/07/10 09:49:10;;;;;;;10.00;9.70;;;19.10;99.90;;;;;;5021388;28;20285;-84
2022/07/10 09:51:40;;;;;;;10.00;9.70;;;19.30;99.90;;;;;;5036870;28;20220;-84
2022/07/10 09:54:11;;;;;;;10.20;9.90;;;19.30;99.90;;;;;;5038634;28;20228;-84
2022/07/10 09:56:44;;;;;;;10.02;9.73;;;19.20;99.90;;;;;;5038323;28;20216;-84
2022/07/10 09:59:14;;;;;;;10.20;9.90;;;18.80;99.90;;;;;;5038625;28;20239;-84
2022/07/10 10:01:47;;;;;;;9.95;9.65;;;18.70;99.90;;;;;;5041131;28;20224;-84
2022/07/10 10:04:15;;;;;;;9.88;9.57;;;18.70;99.90;;;;;;5042023;28;20223;-84
2022/07/10 10:06:43;;;;;;;10.30;10.00;;;18.70;99.90;;;;;;5042195;28;20218;-84
2022/07/10 10:09:24;;;;;;;10.18;9.88;;;18.50;99.90;;;;;;5036928;28;20236;-84
2022/07/10 10:11:58;;;;;;;10.10;9.80;;;18.50;99.90;;;;;;5026360;28;20236;-83
2022/07/10 10:14:27;;;;;;;10.32;10.02;;;18.50;99.90;;;;;;5022189;28;20311;-84
2022/07/10 10:16:57;;;;;;;9.98;9.68;;;18.40;99.90;;;;;;5021915;28;20311;-84
2022/07/10 10:22:11;;;;;;;10.18;9.88;;;18.40;99.90;;;;;;5021534;28;20228;-84
2022/07/10 10:24:41;;;;;;;10.43;10.13;;;18.30;99.90;;;;;;5021807;28;20256;-84
2022/07/10 10:27:10;;;;;;;10.15;9.85;;;18.10;99.90;;;;;;5022048;28;20240;-84
2022/07/10 10:29:40;;;;;;;10.00;9.70;;;18.00;99.90;;;;;;5022293;28;20718;-83
2022/07/10 10:32:10;;;;;;;10.07;9.77;;;18.00;99.90;;;;;;5022535;28;20292;-83
2022/07/10 10:34:42;;;;;;;10.20;9.90;;;18.00;99.90;;;;;;5022245;28;20239;-83
2022/07/10 10:37:39;;;;;;;10.15;9.85;;;18.00;99.90;;;;;;5022205;28;20243;-82
2022/07/10 10:40:10;;;;;;;10.20;9.90;;;18.00;99.90;;;;;;5023137;28;20303;-82
2022/07/10 10:42:41;;;;;;;9.80;9.50;;;17.80;99.90;;;;;;5022481;28;20318;-83
2022/07/10 10:45:35;;;;;;;10.07;9.77;;;17.70;99.90;;;;;;5021835;28;20239;-83
2022/07/10 10:48:08;;;;;;;10.20;9.90;;;17.70;99.90;;;;;;5022482;28;20236;-83
2022/07/10 10:50:42;;;;;;;9.85;9.55;;;17.90;99.90;;;;;;5021629;28;20331;-82
2022/07/10 10:53:17;;;;;;;10.20;9.90;;;18.10;99.90;;;;;;5021534;28;20315;-83
2022/07/10 10:56:22;;;;;;;10.02;9.73;;;18.20;99.90;;;;;;5021412;28;20259;-83
2022/07/10 10:58:52;;;;;;;9.90;9.60;;;18.30;99.90;;;;;;5022099;28;20298;-83
2022/07/10 11:01:28;;;;;;;10.20;9.90;;;18.60;99.90;;;;;;5021952;28;20240;-83
2022/07/10 11:04:19;;;;;;;9.93;9.63;;;18.90;99.90;;;;;;5022366;28;20235;-83
2022/07/10 11:06:49;;;;;;;10.07;9.77;;;19.30;99.90;;;;;;5029199;28;20224;-83
2022/07/10 11:09:28;;;;;;;9.98;9.68;;;19.20;99.90;;;;;;5025639;28;20300;-83
2022/07/10 11:12:06;;;;;;;10.00;9.70;;;19.10;99.90;;;;;;5022873;28;20308;-83
2022/07/10 11:14:37;;;;;;;9.82;9.52;;;19.00;99.90;;;;;;5021354;28;20240;-82
2022/07/10 11:17:06;;;;;;;10.27;9.98;;;18.70;99.90;;;;;;5021046;28;20228;-82
2022/07/10 11:19:35;;;;;;;10.05;9.75;;;18.60;99.90;;;;;;5022971;28;20234;-82
2022/07/10 11:22:36;;;;;;;10.20;9.90;;;18.50;99.90;;;;;;5021259;28;20262;-84
2022/07/10 11:25:34;;;;;;;10.32;10.02;;;18.40;99.90;;;;;;5021425;28;20259;-83
2022/07/10 11:28:10;;;;;;;10.40;10.10;;;18.30;99.90;;;;;;5020732;28;20229;-83
2022/07/10 11:33:07;;;;;;;10.05;9.75;;;18.00;99.90;;;;;;5063881;22;20250;-82
2022/07/10 11:35:36;;;;;;;10.02;9.73;;;17.80;99.90;;;;;;5043553;28;20271;-82
2022/07/10 11:38:04;;;;;;;9.90;9.60;;;17.80;99.90;;;;;;5044785;28;20220;-82
2022/07/10 11:40:31;;;;;;;9.93;9.63;;;17.80;99.90;;;;;;5044787;28;20235;-82
2022/07/10 11:43:00;;;;;;;10.00;9.70;;;17.80;99.90;;;;;;5046705;28;20296;-82
2022/07/10 11:45:31;;;;;;;10.10;9.80;;;17.90;99.90;;;;;;5052817;28;20242;-81
2022/07/10 11:48:00;;;;;;;10.00;9.70;;;18.00;99.90;;;;;;5053988;28;20227;-82
2022/07/10 11:50:36;;;;;;;10.20;9.90;;;18.20;99.90;;;;;;5054590;28;20246;-82
2022/07/10 11:53:04;;;;;;;10.15;9.85;;;18.20;99.90;;;;;;5053129;28;20270;-82
2022/07/10 11:55:36;;;;;;;10.00;9.70;;;18.50;99.90;;;;;;5051636;28;20278;-82
2022/07/10 11:58:15;;;;;;;9.90;9.60;;;18.80;99.90;;;;;;5052303;28;20216;-81
2022/07/10 12:00:43;;;;;;;10.18;9.88;;;18.90;99.90;;;;;;5051049;28;20257;-82
2022/07/10 12:03:21;;;;;;;9.90;9.60;;;18.90;99.90;;;;;;5050697;28;20239;-82
2022/07/10 12:05:51;;;;;;;9.90;9.60;;;18.90;99.90;;;;;;5053176;28;20297;-82
2022/07/10 12:08:19;;;;;;;9.68;9.38;;;18.40;99.90;;;;;;5053082;28;20283;-82
2022/07/10 12:10:46;;;;;;;9.90;9.60;;;18.50;99.90;;;;;;5049450;28;20228;-82
2022/07/10 12:13:16;;;;;;;9.85;9.55;;;18.50;99.90;;;;;;5046554;28;20266;-81
2022/07/10 12:15:45;;;;;;;9.82;9.52;;;18.40;99.90;;;;;;5043704;28;20239;-82
2022/07/10 12:18:19;;;;;;;9.57;9.27;;;18.60;99.90;;;;;;5044527;28;20287;-82
2022/07/10 12:20:49;;;;;;;9.55;9.25;;;18.80;99.90;;;;;;5044345;28;20246;-82
2022/07/10 12:23:18;;;;;;;9.80;9.50;;;19.40;99.90;;;;;;5055537;28;20235;-82
2022/07/10 12:25:49;;;;;;;10.18;9.88;;;20.00;99.90;;;;;;5043549;28;20215;-82
2022/07/10 12:28:17;;;;;;;9.90;9.60;;;20.40;99.90;;;;;;5042368;28;20347;-82
2022/07/10 12:30:46;;;;;;;10.00;9.70;;;20.80;99.90;;;;;;5042440;28;20342;-82
2022/07/10 12:33:17;;;;;;;10.00;9.70;;;20.80;99.90;;;;;;5041710;28;20326;-82
2022/07/10 12:35:56;;;;;;;10.00;9.70;;;20.70;99.90;;;;;;5041709;28;20228;-81
2022/07/10 12:38:26;;;;;;;9.90;9.60;;;20.60;99.90;;;;;;5040740;28;20290;-82
2022/07/10 12:41:09;;;;;;;9.93;9.63;;;20.60;99.90;;;;;;5042610;28;20243;-82
2022/07/10 12:43:36;;;;;;;9.90;9.60;;;20.00;99.90;;;;;;5041725;28;20228;-81
2022/07/10 12:46:13;;;;;;;10.00;9.70;;;19.60;99.90;;;;;;5039698;28;20286;-82
2022/07/10 12:48:41;;;;;;;9.63;9.32;;;19.50;99.90;;;;;;5039406;28;20694;-81
2022/07/10 12:51:24;;;;;;;9.90;9.60;;;19.40;99.90;;;;;;5039470;28;20322;-82
2022/07/10 12:53:53;;;;;;;9.93;9.63;;;19.40;99.90;;;;;;5040410;28;20290;-82
2022/07/10 12:56:38;;;;;;;10.07;9.77;;;19.50;99.90;;;;;;5045982;28;20251;-81
2022/07/10 12:59:14;;;;;;;10.10;9.80;;;19.70;99.90;;;;;;5054803;28;20219;-81
2022/07/10 13:01:44;;;;;;;10.15;9.85;;;19.80;99.90;;;;;;5055426;28;20265;-81
2022/07/10 13:04:14;;;;;;;10.05;9.75;;;19.70;99.90;;;;;;5043022;28;20258;-83
2022/07/10 13:06:43;;;;;;;10.00;9.70;;;19.40;99.90;;;;;;5041284;28;20335;-82
2022/07/10 13:09:22;;;;;;;10.00;9.70;;;19.50;99.90;;;;;;5041567;28;20228;-82